Time;durP1;ratioP1;P1;durP2;ratioP2;P2;SDS_P1;SDS_P2;PMS_P1;PMS_P2;Temp;Humidity;BMP_temperature;BMP_pressure;BME280_temperature;BME280_humidity;BME280_pressure;Samples;Min_cycle;Max_cycle;Signal;HPM_P1;HPM_P2
2022/05/27 00:01:04;;;;;;;;;;;;;;;30.49;22.39;101181.47;4430492;32;19949;-70
2022/05/27 00:03:29;;;;;;;;;;;;;;;30.62;22.37;101187.22;4430050;32;19976;-69
2022/05/27 00:05:55;;;;;;;;;;;;;;;30.65;22.40;101191.88;4428661;32;19988;-69
2022/05/27 00:08:20;;;;;;;;;;;;;;;30.66;22.37;101193.44;4428880;32;19989;-69
2022/05/27 00:10:46;;;;;;;;;;;;;;;30.51;22.63;101193.28;4432937;32;19956;-69
2022/05/27 00:13:12;;;;;;;;;;;;;;;30.66;22.58;101190.53;4428944;32;20729;-69
2022/05/27 00:15:38;;;;;;;;;;;;;;;30.56;22.61;101187.34;4431402;32;19965;-69
2022/05/27 00:18:03;;;;;;;;;;;;;;;30.62;22.49;101196.69;4426797;32;20631;-70
2022/05/27 00:20:29;;;;;;;;;;;;;;;30.44;22.16;101197.69;4431355;32;20011;-69
2022/05/27 00:22:55;;;;;;;;;;;;;;;30.56;21.86;101190.25;4428606;32;20020;-70
2022/05/27 00:25:21;;;;;;;;;;;;;;;30.72;21.71;101194.06;4421602;32;20310;-70
2022/05/27 00:27:46;;;;;;;;;;;;;;;30.47;21.99;101192.87;4430735;32;20008;-70
2022/05/27 00:30:12;;;;;;;;;;;;;;;30.67;21.82;101194.97;4431681;32;19972;-69
2022/05/27 00:32:38;;;;;;;;;;;;;;;30.37;21.89;101188.94;4429754;32;19949;-70
2022/05/27 00:35:04;;;;;;;;;;;;;;;30.05;22.09;101189.16;4431137;32;19967;-70
2022/05/27 00:37:29;;;;;;;;;;;;;;;30.05;22.29;101183.34;4429322;32;19989;-69
2022/05/27 00:39:56;;;;;;;;;;;;;;;30.22;22.04;101195.34;4429962;32;20025;-69
2022/05/27 00:42:21;;;;;;;;;;;;;;;30.40;21.84;101199.41;4426764;32;19971;-70
2022/05/27 00:44:48;;;;;;;;;;;;;;;30.08;21.94;101198.84;4435101;32;19966;-69
2022/05/27 00:47:17;;;;;;;;;;;;;;;30.27;21.63;101208.16;4427789;32;20307;-69
2022/05/27 00:49:46;;;;;;;;;;;;;;;30.18;21.70;101188.28;4431809;32;20001;-70
2022/05/27 00:52:12;;;;;;;;;;;;;;;29.93;22.09;101193.66;4426895;32;19980;-70
2022/05/27 00:54:40;;;;;;;;;;;;;;;30.04;21.88;101207.13;4426976;32;19991;-70
2022/05/27 00:57:09;;;;;;;;;;;;;;;29.59;22.04;101209.44;4430705;32;19979;-71
2022/05/27 00:59:44;;;;;;;;;;;;;;;30.04;21.74;101207.13;4428991;32;20007;-70
2022/05/27 01:02:11;;;;;;;;;;;;;;;30.30;21.62;101207.03;4430269;32;20398;-70
2022/05/27 01:04:37;;;;;;;;;;;;;;;30.29;21.47;101214.19;4431268;32;20408;-70
2022/05/27 01:07:04;;;;;;;;;;;;;;;30.22;21.50;101217.81;4434722;32;20334;-70
2022/05/27 01:09:30;;;;;;;;;;;;;;;29.93;21.79;101221.88;4428897;32;20432;-70
2022/05/27 01:12:17;;;;;;;;;;;;;;;29.81;21.81;101218.47;4426493;32;20004;-70
2022/05/27 01:15:03;;;;;;;;;;;;;;;29.96;21.83;101229.47;4425665;32;19961;-71
2022/05/27 01:17:48;;;;;;;;;;;;;;;30.21;21.42;101224.94;4433929;32;20000;-70
2022/05/27 01:20:22;;;;;;;;;;;;;;;29.56;20.96;101227.97;4421379;32;19957;-70
2022/05/27 01:25:52;;;;;;;;;;;;;;;29.83;20.43;101230.31;3949366;32;15854559;-70
2022/05/27 01:31:21;;;;;;;;;;;;;;;29.63;20.62;101233.16;3951452;32;15722537;-70
2022/05/27 01:39:34;;;;;;;;;;;;;;;29.69;20.69;101240.37;3953678;32;15723552;-69
2022/05/27 01:42:05;;;;;;;;;;;;;;;29.69;20.69;101240.37;4427281;32;20001;-69
2022/05/27 01:44:33;;;;;;;;;;;;;;;29.16;20.72;101261.22;4427919;32;20366;-69
2022/05/27 01:47:00;;;;;;;;;;;;;;;29.05;20.40;101249.84;4429937;32;19957;-69
2022/05/27 01:54:50;;;;;;;;;;;;;;;29.40;20.17;101263.91;3953489;32;15723276;-70
2022/05/27 01:57:22;;;;;;;;;;;;;;;29.13;20.22;101250.75;4429746;32;20000;-70
2022/05/27 02:02:28;;;;;;;;;;;;;;;29.05;20.45;101264.34;3974277;31;15715843;-70
2022/05/27 02:04:59;;;;;;;;;;;;;;;29.05;20.45;101264.34;4450411;32;20192;-70
2022/05/27 02:07:26;;;;;;;;;;;;;;;29.08;20.27;101254.53;4452580;32;20041;-70
2022/05/27 02:09:55;;;;;;;;;;;;;;;29.00;20.36;101255.16;4449820;32;19969;-70
2022/05/27 02:12:26;;;;;;;;;;;;;;;28.68;20.64;101260.22;4452011;32;19961;-69
2022/05/27 02:14:54;;;;;;;;;;;;;;;28.25;21.05;101247.22;4451830;32;20326;-70
2022/05/27 02:17:27;;;;;;;;;;;;;;;28.91;20.53;101251.91;4450957;32;20363;-70
2022/05/27 02:19:56;;;;;;;;;;;;;;;28.75;20.82;101267.50;4452686;32;19993;-70
2022/05/27 02:22:25;;;;;;;;;;;;;;;28.88;20.64;101268.31;4453005;32;20393;-70
2022/05/27 02:24:55;;;;;;;;;;;;;;;28.52;21.07;101264.19;4442346;32;19957;-70
2022/05/27 02:27:26;;;;;;;;;;;;;;;28.73;20.81;101268.03;4453050;32;20013;-70
2022/05/27 02:29:55;;;;;;;;;;;;;;;28.38;21.13;101268.31;4452933;32;19972;-70
2022/05/27 02:32:25;;;;;;;;;;;;;;;27.83;21.75;101262.56;4449554;32;19975;-70
2022/05/27 02:35:08;;;;;;;;;;;;;;;28.07;21.49;101260.37;4451566;32;20076;-69
2022/05/27 02:37:37;;;;;;;;;;;;;;;27.73;21.89;101265.03;4449121;32;20024;-69
2022/05/27 02:40:06;;;;;;;;;;;;;;;27.72;21.97;101259.81;4448883;32;19969;-69
2022/05/27 02:42:52;;;;;;;;;;;;;;;27.96;21.75;101251.88;4448560;32;19992;-70
2022/05/27 02:50:40;;;;;;;;;;;;;;;27.54;21.96;101257.69;3951212;32;15724565;-68
2022/05/27 02:53:26;;;;;;;;;;;;;;;27.62;21.76;101264.41;4431974;32;20004;-70
2022/05/27 02:58:29;;;;;;;;;;;;;;;27.74;21.80;101265.84;3951380;32;15739555;-69
2022/05/27 03:00:55;;;;;;;;;;;;;;;27.74;21.80;101265.84;4433180;32;20026;-70
2022/05/27 03:03:20;;;;;;;;;;;;;;;27.55;21.75;101265.81;4435545;32;19989;-70
2022/05/27 03:06:06;;;;;;;;;;;;;;;26.63;22.40;101269.16;4434466;32;19975;-69
2022/05/27 03:11:27;;;;;;;;;;;;;;;26.98;22.30;101258.31;3952284;32;15724548;-70
2022/05/27 03:24:37;;;;;;;;;;;;;;;26.82;22.20;101267.13;3950010;32;15728628;-70
2022/05/27 03:27:23;;;;;;;;;;;;;;;26.82;22.20;101267.13;4429074;32;20003;-70
2022/05/27 03:35:05;;;;;;;;;;;;;;;27.19;22.01;101275.94;3952384;32;15723568;-69
2022/05/27 03:37:36;;;;;;;;;;;;;;;27.19;22.01;101275.94;4434687;32;20024;-69
2022/05/27 03:42:38;;;;;;;;;;;;;;;27.23;22.01;101285.88;3951522;32;15722473;-69
2022/05/27 03:47:40;;;;;;;;;;;;;;;26.83;22.19;101280.25;3951940;32;15728034;-70
2022/05/27 03:50:07;;;;;;;;;;;;;;;26.83;22.19;101280.25;4433512;32;19972;-70
2022/05/27 03:52:36;;;;;;;;;;;;;;;26.79;22.20;101283.41;4436763;32;20094;-69
2022/05/27 03:55:02;;;;;;;;;;;;;;;27.27;21.73;101294.25;4436993;32;20005;-70
2022/05/27 03:57:27;;;;;;;;;;;;;;;27.56;21.42;101289.72;4433990;32;20055;-69
2022/05/27 03:59:53;;;;;;;;;;;;;;;27.09;21.95;101287.06;4435405;32;19997;-70
2022/05/27 04:02:18;;;;;;;;;;;;;;;26.70;21.99;101286.66;4434380;32;20287;-69
2022/05/27 04:04:44;;;;;;;;;;;;;;;26.81;22.02;101292.31;4434160;32;19996;-70
2022/05/27 04:07:10;;;;;;;;;;;;;;;26.86;22.08;101303.06;4432300;32;19949;-70
2022/05/27 04:09:36;;;;;;;;;;;;;;;27.40;21.52;101308.84;4435911;32;21383;-69
2022/05/27 04:12:02;;;;;;;;;;;;;;;27.56;21.32;101310.75;4434815;32;20004;-69
2022/05/27 04:14:28;;;;;;;;;;;;;;;27.57;21.34;101302.84;4433931;32;19949;-70
2022/05/27 04:17:27;;;;;;;;;;;;;;;27.36;21.47;101308.34;4433294;32;20423;-69
2022/05/27 04:19:39;;;;;;;;;;;;;;;27.83;21.04;101308.84;4434760;32;20133;-69
2022/05/27 04:22:05;;;;;;;;;;;;;;;27.76;21.07;101312.38;4432540;32;20002;-69
2022/05/27 04:24:30;;;;;;;;;;;;;;;28.18;20.66;101318.13;4435868;32;19968;-69
2022/05/27 04:26:57;;;;;;;;;;;;;;;28.33;20.74;101318.44;4437692;32;20012;-69
2022/05/27 04:29:23;;;;;;;;;;;;;;;27.80;20.96;101316.50;4433726;32;20379;-69
2022/05/27 04:31:49;;;;;;;;;;;;;;;27.92;20.98;101320.84;4432162;32;20004;-69
2022/05/27 04:34:15;;;;;;;;;;;;;;;28.36;20.56;101317.34;4433151;32;20405;-69
2022/05/27 04:36:40;;;;;;;;;;;;;;;28.47;20.41;101319.31;4433920;32;20023;-69
2022/05/27 04:39:06;;;;;;;;;;;;;;;27.54;21.27;101322.06;4436351;32;19975;-69
2022/05/27 04:41:31;;;;;;;;;;;;;;;28.04;20.80;101338.84;4432247;32;20008;-69
2022/05/27 04:43:58;;;;;;;;;;;;;;;28.54;20.21;101336.84;4433214;32;19972;-69
2022/05/27 04:46:24;;;;;;;;;;;;;;;28.53;20.21;101340.28;4432173;32;20037;-69
2022/05/27 04:48:49;;;;;;;;;;;;;;;28.71;20.15;101348.13;4434272;32;20004;-69
2022/05/27 04:51:15;;;;;;;;;;;;;;;28.80;20.11;101350.62;4434075;32;19997;-69
2022/05/27 04:53:41;;;;;;;;;;;;;;;28.29;20.41;101349.78;4434039;32;20248;-69
2022/05/27 04:56:09;;;;;;;;;;;;;;;28.56;20.18;101354.41;4433532;32;20313;-69
2022/05/27 04:58:34;;;;;;;;;;;;;;;28.95;19.77;101365.37;4426168;32;20423;-69
2022/05/27 05:01:00;;;;;;;;;;;;;;;28.54;20.22;101365.78;4422277;32;19988;-69
2022/05/27 05:03:26;;;;;;;;;;;;;;;27.96;20.83;101363.94;4423291;32;20625;-69
2022/05/27 05:05:51;;;;;;;;;;;;;;;28.44;20.48;101353.00;4423694;32;20038;-69
2022/05/27 05:08:28;;;;;;;;;;;;;;;27.84;21.06;101356.69;4423883;32;19976;-69
2022/05/27 05:10:54;;;;;;;;;;;;;;;27.48;21.43;101346.63;4421492;32;20378;-69
2022/05/27 05:13:20;;;;;;;;;;;;;;;28.44;20.67;101361.69;4419814;32;19965;-69
2022/05/27 05:15:46;;;;;;;;;;;;;;;28.71;20.39;101363.41;4423714;32;19989;-69
2022/05/27 05:18:12;;;;;;;;;;;;;;;27.97;21.09;101368.38;4425893;32;19972;-69
2022/05/27 05:20:37;;;;;;;;;;;;;;;28.27;20.90;101363.25;4422544;32;20031;-70
2022/05/27 05:23:03;;;;;;;;;;;;;;;28.37;20.82;101365.22;4422980;32;20044;-70
2022/05/27 05:25:29;;;;;;;;;;;;;;;28.27;21.00;101361.16;4424626;32;19961;-70
2022/05/27 05:27:54;;;;;;;;;;;;;;;28.14;21.07;101366.88;4424211;32;19945;-70
2022/05/27 05:30:22;;;;;;;;;;;;;;;28.16;21.09;101358.41;4422596;32;19964;-70
2022/05/27 05:32:47;;;;;;;;;;;;;;;27.91;21.58;101371.34;4423818;32;20021;-70
2022/05/27 05:35:14;;;;;;;;;;;;;;;28.14;21.33;101378.44;4421284;32;20428;-69
2022/05/27 05:37:39;;;;;;;;;;;;;;;27.65;21.78;101373.22;4423988;32;19987;-70
2022/05/27 05:40:06;;;;;;;;;;;;;;;27.92;21.44;101364.22;4422667;32;21352;-70
2022/05/27 05:42:31;;;;;;;;;;;;;;;27.48;22.04;101355.28;4408835;32;20020;-70
2022/05/27 05:44:59;;;;;;;;;;;;;;;28.07;21.50;101355.13;4422810;32;20324;-69
2022/05/27 05:47:25;;;;;;;;;;;;;;;27.16;22.31;101350.03;4409013;32;20277;-71
2022/05/27 05:49:50;;;;;;;;;;;;;;;26.26;23.45;101341.03;4424805;32;20377;-69
2022/05/27 05:52:16;;;;;;;;;;;;;;;27.36;22.39;101340.16;4423077;32;20295;-69
2022/05/27 05:54:42;;;;;;;;;;;;;;;26.76;23.02;101348.06;4421012;32;19961;-69
2022/05/27 05:57:08;;;;;;;;;;;;;;;26.41;23.47;101359.53;4424181;32;20311;-69
2022/05/27 05:59:35;;;;;;;;;;;;;;;27.21;22.69;101351.31;4418842;32;19992;-69
2022/05/27 06:02:01;;;;;;;;;;;;;;;27.90;21.84;101355.34;4422672;32;19994;-69
2022/05/27 06:04:27;;;;;;;;;;;;;;;28.03;21.65;101360.41;4422187;32;19949;-69
2022/05/27 06:06:54;;;;;;;;;;;;;;;27.50;22.35;101356.31;4423259;32;19962;-69
2022/05/27 06:09:25;;;;;;;;;;;;;;;26.94;22.85;101358.13;4420509;32;20599;-69
2022/05/27 06:11:53;;;;;;;;;;;;;;;27.68;22.34;101344.00;4418737;32;20001;-69
2022/05/27 06:14:19;;;;;;;;;;;;;;;26.58;23.48;101321.91;4419874;32;19994;-68
2022/05/27 06:16:44;;;;;;;;;;;;;;;26.59;23.63;101329.22;4424031;32;20009;-69
2022/05/27 06:19:10;;;;;;;;;;;;;;;26.57;23.83;101312.44;4422154;32;20435;-69
2022/05/27 06:21:36;;;;;;;;;;;;;;;26.28;23.95;101324.72;4421726;32;20367;-69
2022/05/27 06:24:01;;;;;;;;;;;;;;;27.05;23.27;101329.94;4420174;32;20580;-69
2022/05/27 06:26:26;;;;;;;;;;;;;;;27.73;22.64;101345.28;4421366;32;20347;-69
2022/05/27 06:34:24;;;;;;;;;;;;;;;28.13;22.06;101382.66;4421815;32;19976;-69
2022/05/27 06:36:53;;;;;;;;;;;;;;;27.86;22.38;101403.25;4422410;32;20441;-69
2022/05/27 06:39:19;;;;;;;;;;;;;;;27.00;23.29;101400.09;4420931;32;19991;-69
2022/05/27 06:41:45;;;;;;;;;;;;;;;27.88;22.58;101406.37;4422990;32;20353;-69
2022/05/27 06:44:10;;;;;;;;;;;;;;;29.07;21.45;101409.47;4422397;32;19980;-69
2022/05/27 06:46:37;;;;;;;;;;;;;;;29.65;20.77;101407.41;4417635;32;19977;-69
2022/05/27 06:49:04;;;;;;;;;;;;;;;29.09;21.34;101396.00;4409937;32;20022;-70
2022/05/27 06:51:29;;;;;;;;;;;;;;;28.98;21.30;101399.84;4412722;32;19954;-69
2022/05/27 06:53:55;;;;;;;;;;;;;;;29.40;21.16;101395.19;4412446;32;20268;-69
2022/05/27 06:56:21;;;;;;;;;;;;;;;28.26;22.37;101376.94;4410796;32;19980;-69
2022/05/27 06:58:47;;;;;;;;;;;;;;;28.20;22.28;101392.84;4410490;32;20005;-69
2022/05/27 07:01:14;;;;;;;;;;;;;;;29.06;21.52;101402.91;4412838;32;20247;-69
2022/05/27 07:03:39;;;;;;;;;;;;;;;29.36;20.98;101406.31;4416640;32;19992;-69
2022/05/27 07:06:05;;;;;;;;;;;;;;;28.37;21.86;101422.31;4412941;32;20614;-69
2022/05/27 07:08:31;;;;;;;;;;;;;;;29.16;21.20;101414.84;4409656;32;20428;-69
2022/05/27 07:10:57;;;;;;;;;;;;;;;28.59;21.52;101408.34;4410387;32;20256;-69
2022/05/27 07:13:22;;;;;;;;;;;;;;;29.41;20.76;101419.94;4414651;32;19957;-69
2022/05/27 07:15:48;;;;;;;;;;;;;;;28.97;20.87;101412.75;4413153;32;19958;-69
2022/05/27 07:18:13;;;;;;;;;;;;;;;29.79;20.22;101440.91;4413112;32;20049;-69
2022/05/27 07:20:41;;;;;;;;;;;;;;;28.77;21.09;101427.03;4412807;32;19959;-69
2022/05/27 07:23:06;;;;;;;;;;;;;;;28.79;21.15;101439.66;4402356;32;20012;-69
2022/05/27 07:25:35;;;;;;;;;;;;;;;27.97;22.00;101438.62;4410340;32;20044;-69
2022/05/27 07:28:02;;;;;;;;;;;;;;;27.48;22.58;101442.03;4411557;32;20006;-69
2022/05/27 07:30:27;;;;;;;;;;;;;;;28.16;22.02;101450.25;4412146;32;19961;-69
2022/05/27 07:32:53;;;;;;;;;;;;;;;27.63;22.71;101428.72;4413109;32;20241;-69
2022/05/27 07:35:18;;;;;;;;;;;;;;;28.56;21.97;101438.41;4412286;32;19968;-69
2022/05/27 07:37:44;;;;;;;;;;;;;;;27.34;23.33;101443.97;4413099;32;19988;-69
2022/05/27 07:40:10;;;;;;;;;;;;;;;27.63;23.13;101425.81;4413733;32;20497;-69
2022/05/27 07:42:36;;;;;;;;;;;;;;;27.45;23.28;101429.41;4411334;32;20023;-69
2022/05/27 07:45:01;;;;;;;;;;;;;;;27.63;23.16;101405.56;4410463;32;20402;-70
2022/05/27 07:47:28;;;;;;;;;;;;;;;28.29;22.67;101419.25;4412433;32;19962;-69
2022/05/27 07:49:54;;;;;;;;;;;;;;;28.52;22.33;101409.00;4414892;32;20679;-69
2022/05/27 07:52:19;;;;;;;;;;;;;;;28.04;22.82;101437.25;4415743;32;20279;-70
2022/05/27 07:54:45;;;;;;;;;;;;;;;28.09;22.35;101431.38;4412537;32;20304;-70
2022/05/27 07:57:27;;;;;;;;;;;;;;;28.10;22.54;101446.63;4416699;32;20379;-69
2022/05/27 08:02:28;;;;;;;;;;;;;;;29.27;21.06;101452.38;3950593;32;15721331;-70
2022/05/27 08:04:53;;;;;;;;;;;;;;;29.27;21.06;101452.38;4430030;32;20347;-69
2022/05/27 08:07:20;;;;;;;;;;;;;;;30.06;20.00;101449.06;4434540;32;20476;-69
2022/05/27 08:09:46;;;;;;;;;;;;;;;28.57;21.10;101442.91;4432205;32;20053;-68
2022/05/27 08:12:11;;;;;;;;;;;;;;;30.04;19.93;101457.56;4430537;32;20000;-69
2022/05/27 08:14:37;;;;;;;;;;;;;;;29.31;20.10;101449.94;4432612;32;19998;-71
2022/05/27 08:17:03;;;;;;;;;;;;;;;30.11;19.58;101451.09;4436030;32;19997;-69
2022/05/27 08:19:28;;;;;;;;;;;;;;;30.24;19.35;101459.81;4432034;32;20346;-69
2022/05/27 08:21:53;;;;;;;;;;;;;;;30.53;19.17;101473.16;4432668;32;20011;-69
2022/05/27 08:24:19;;;;;;;;;;;;;;;30.77;19.02;101472.16;4435291;32;19972;-69
2022/05/27 08:26:44;;;;;;;;;;;;;;;30.07;19.84;101479.66;4430390;32;20031;-69
2022/05/27 08:29:10;;;;;;;;;;;;;;;30.19;19.70;101469.41;4430669;32;20002;-69
2022/05/27 08:31:36;;;;;;;;;;;;;;;30.26;19.65;101492.00;4428890;32;19996;-69
2022/05/27 08:39:33;;;;;;;;;;;;;;;30.34;19.32;101506.62;4431870;32;19993;-69
2022/05/27 08:49:50;;;;;;;;;;;;;;;30.62;19.97;101506.81;3955220;32;15722347;-69
2022/05/27 08:52:21;;;;;;;;;;;;;;;30.62;19.97;101506.81;4431290;32;19997;-69
2022/05/27 08:54:54;;;;;;;;;;;;;;;31.65;19.25;101509.94;4430366;32;20042;-69
2022/05/27 09:00:14;;;;;;;;;;;;;;;32.60;18.58;101510.50;4427122;32;20031;-69
2022/05/27 09:08:04;;;;;;;;;;;;;;;31.07;19.02;101533.56;3950067;32;15730374;-70
2022/05/27 09:10:51;;;;;;;;;;;;;;;31.07;19.02;101533.56;4431353;32;19968;-69
2022/05/27 09:13:28;;;;;;;;;;;;;;;31.13;18.97;101522.56;4428186;32;20334;-69
2022/05/27 09:16:04;;;;;;;;;;;;;;;30.86;19.38;101523.22;4425985;32;19997;-69
2022/05/27 09:29:04;;;;;;;;;;;;;;;30.71;19.88;101524.56;3944854;32;15723570;-69
2022/05/27 09:34:08;;;;;;;;;;;;;;;31.13;19.40;101531.31;3950901;32;15722323;-69
2022/05/27 09:36:36;;;;;;;;;;;;;;;31.13;19.40;101531.31;4429259;32;19966;-69
2022/05/27 09:39:05;;;;;;;;;;;;;;;32.07;18.49;101531.87;4429271;32;19953;-70
2022/05/27 09:46:41;;;;;;;;;;;;;;;32.98;17.74;101541.50;3951680;32;15725347;-70
2022/05/27 09:49:07;;;;;;;;;;;;;;;33.00;17.77;101545.13;4430395;32;19961;-69
2022/05/27 09:51:32;;;;;;;;;;;;;;;32.36;18.43;101557.56;4431904;32;20371;-70
2022/05/27 09:54:03;;;;;;;;;;;;;;;32.94;18.01;101554.00;4429620;32;20005;-69
2022/05/27 09:56:38;;;;;;;;;;;;;;;32.75;18.20;101556.44;4430191;32;19957;-69
2022/05/27 09:59:20;;;;;;;;;;;;;;;32.26;18.63;101546.97;4426082;32;20021;-70
2022/05/27 10:01:46;;;;;;;;;;;;;;;31.88;18.91;101540.88;4424852;32;19997;-69
2022/05/27 10:04:13;;;;;;;;;;;;;;;32.08;18.28;101553.81;4427773;32;20017;-69
2022/05/27 10:06:39;;;;;;;;;;;;;;;31.95;18.39;101560.53;4426449;32;20358;-70
2022/05/27 10:09:06;;;;;;;;;;;;;;;32.47;17.95;101554.34;4427097;32;20622;-69
2022/05/27 10:11:46;;;;;;;;;;;;;;;33.02;17.42;101556.97;4428761;32;19958;-69
2022/05/27 10:19:34;;;;;;;;;;;;;;;31.54;18.31;101553.91;3954190;32;15721567;-69
2022/05/27 10:22:01;;;;;;;;;;;;;;;31.54;18.31;101553.91;4426728;32;20000;-69
2022/05/27 10:24:31;;;;;;;;;;;;;;;30.45;19.46;101550.75;4424089;32;19957;-69
2022/05/27 10:27:04;;;;;;;;;;;;;;;31.01;19.44;101546.69;4425533;32;20532;-69
2022/05/27 10:29:30;;;;;;;;;;;;;;;31.77;18.73;101554.88;4429767;32;20424;-69
2022/05/27 10:31:57;;;;;;;;;;;;;;;32.19;18.42;101556.44;4425973;32;20013;-70
2022/05/27 10:34:40;;;;;;;;;;;;;;;32.84;17.68;101555.87;4427295;32;20072;-70
2022/05/27 10:37:12;;;;;;;;;;;;;;;31.58;18.62;101578.38;4411926;32;20000;-70
2022/05/27 10:39:44;;;;;;;;;;;;;;;31.82;18.34;101566.44;4428075;32;20037;-70
2022/05/27 10:44:57;;;;;;;;;;;;;;;32.48;17.79;101587.94;3951122;32;15722544;-69
2022/05/27 10:50:18;;;;;;;;;;;;;;;32.19;17.82;101576.81;3949790;32;15721422;-69
2022/05/27 10:55:26;;;;;;;;;;;;;;;32.92;17.37;101573.44;3958974;31;15716220;-69
2022/05/27 11:03:33;;;;;;;;;;;;;;;31.81;18.46;101596.88;4428147;32;20026;-70
2022/05/27 11:08:43;;;;;;;;;;;;;;;32.95;17.61;101578.94;3952728;32;15723997;-69
2022/05/27 11:19:37;;;;;;;;;;;;;;;31.42;19.15;101588.31;3951230;32;15722548;-69
2022/05/27 11:25:02;;;;;;;;;;;;;;;31.23;18.88;101584.72;3961442;31;15717275;-70
2022/05/27 11:33:07;;;;;;;;;;;;;;;32.22;18.29;101570.66;3951183;32;15724577;-69
2022/05/27 11:35:38;;;;;;;;;;;;;;;32.21;18.21;101583.63;4430750;32;20109;-70
2022/05/27 11:46:09;;;;;;;;;;;;;;;33.97;16.25;101573.78;3954510;31;15717557;-69
2022/05/27 11:48:48;;;;;;;;;;;;;;;33.97;16.25;101573.78;4428980;32;20019;-69
2022/05/27 11:59:28;;;;;;;;;;;;;;;32.15;17.92;101593.91;3952410;32;15722554;-70
2022/05/27 12:07:33;;;;;;;;;;;;;;;33.42;16.85;101575.59;3960243;31;15886327;-69
2022/05/27 12:13:09;;;;;;;;;;;;;;;32.02;18.19;101597.66;3966218;31;15720091;-70
2022/05/27 12:15:44;;;;;;;;;;;;;;;32.02;18.19;101597.66;4450013;32;19961;-70
2022/05/27 12:18:13;;;;;;;;;;;;;;;32.51;17.42;101598.47;4451564;32;19971;-70
2022/05/27 12:20:40;;;;;;;;;;;;;;;31.58;18.34;101595.84;4452005;32;19985;-70
2022/05/27 12:23:08;;;;;;;;;;;;;;;32.87;17.16;101595.59;4450044;32;19968;-70
2022/05/27 12:25:38;;;;;;;;;;;;;;;32.65;17.15;101599.91;4451471;32;19996;-70
2022/05/27 12:28:04;;;;;;;;;;;;;;;32.79;17.14;101585.22;4450662;32;20010;-70
2022/05/27 12:30:32;;;;;;;;;;;;;;;33.15;16.87;101592.59;4443430;32;19997;-70
2022/05/27 12:32:59;;;;;;;;;;;;;;;33.96;16.21;101592.66;4449110;32;19967;-70
2022/05/27 12:38:16;;;;;;;;;;;;;;;34.22;15.68;101598.09;3952352;32;15725231;-69
2022/05/27 12:40:52;;;;;;;;;;;;;;;34.22;15.68;101598.09;4434184;32;19997;-69
2022/05/27 12:43:37;;;;;;;;;;;;;;;34.62;15.58;101599.06;4436961;32;19968;-70
2022/05/27 12:48:39;;;;;;;;;;;;;;;34.28;16.26;101645.44;3951164;32;15722440;-69
2022/05/27 12:53:45;;;;;;;;;;;;;;;33.64;16.97;101601.94;3952416;32;15723470;-69
2022/05/27 13:04:53;;;;;;;;;;;;;;;34.34;16.46;101616.81;3950949;32;15726550;-69
2022/05/27 13:10:29;;;;;;;;;;;;;;;34.39;16.25;101604.94;3952044;32;15731356;-70
2022/05/27 13:12:59;;;;;;;;;;;;;;;34.39;16.25;101604.94;4427320;32;20428;-70
2022/05/27 13:15:34;;;;;;;;;;;;;;;34.12;16.45;101603.00;4427039;32;19993;-70
2022/05/27 13:18:20;;;;;;;;;;;;;;;34.84;15.65;101589.44;4428888;32;19961;-70
2022/05/27 13:20:55;;;;;;;;;;;;;;;35.38;15.52;101611.31;4427811;32;19996;-70
2022/05/27 13:23:24;;;;;;;;;;;;;;;35.40;15.25;101585.94;4431466;32;20385;-69
2022/05/27 13:26:03;;;;;;;;;;;;;;;36.07;14.79;101590.56;4427091;32;19972;-71
2022/05/27 13:28:34;;;;;;;;;;;;;;;35.64;15.03;101599.84;4430913;32;19953;-70
2022/05/27 13:33:45;;;;;;;;;;;;;;;36.35;14.56;101606.19;3959326;31;15716430;-70
2022/05/27 13:36:16;;;;;;;;;;;;;;;36.35;14.56;101606.19;4444969;32;19999;-69
2022/05/27 13:38:44;;;;;;;;;;;;;;;36.49;14.25;101607.41;4444182;32;19976;-69
2022/05/27 13:41:12;;;;;;;;;;;;;;;37.83;13.10;101602.03;4445424;32;19953;-70
2022/05/27 13:43:39;;;;;;;;;;;;;;;38.60;12.64;101611.94;4441391;32;19994;-69
2022/05/27 13:46:12;;;;;;;;;;;;;;;37.33;13.22;101609.59;4441990;32;20318;-70
2022/05/27 13:48:44;;;;;;;;;;;;;;;37.87;12.95;101596.50;4444992;32;19990;-69
2022/05/27 13:51:11;;;;;;;;;;;;;;;37.77;13.30;101619.16;4446961;32;20063;-70
2022/05/27 13:53:38;;;;;;;;;;;;;;;37.48;13.40;101641.69;4446206;32;20056;-70
2022/05/27 13:56:10;;;;;;;;;;;;;;;36.75;14.06;101624.38;4444411;32;19949;-70
2022/05/27 13:58:44;;;;;;;;;;;;;;;35.37;14.99;101642.75;4443591;32;20094;-70
2022/05/27 14:01:11;;;;;;;;;;;;;;;34.85;15.36;101614.41;4443382;32;20022;-70
2022/05/27 14:03:39;;;;;;;;;;;;;;;35.04;15.31;101623.53;4445851;32;20339;-69
2022/05/27 14:06:05;;;;;;;;;;;;;;;35.21;15.15;101625.78;4443404;32;19992;-69
2022/05/27 14:08:40;;;;;;;;;;;;;;;33.75;16.45;101612.47;4447603;32;20241;-69
2022/05/27 14:11:13;;;;;;;;;;;;;;;35.75;15.11;101624.97;4444672;32;19993;-70
2022/05/27 14:13:39;;;;;;;;;;;;;;;37.82;13.42;101632.03;4444777;32;19984;-70
2022/05/27 14:16:08;;;;;;;;;;;;;;;37.89;13.31;101619.38;4445835;32;19960;-69
2022/05/27 14:18:34;;;;;;;;;;;;;;;38.76;12.70;101618.28;4444192;32;20055;-70
2022/05/27 14:23:48;;;;;;;;;;;;;;;39.37;12.32;101639.22;4444583;32;19994;-70
2022/05/27 14:26:14;;;;;;;;;;;;;;;39.57;11.90;101662.16;4446310;32;19989;-70
2022/05/27 14:31:19;;;;;;;;;;;;;;;39.88;12.16;101634.97;3951117;32;15724550;-70
2022/05/27 14:33:46;;;;;;;;;;;;;;;39.88;12.16;101634.97;4427381;32;19972;-70
2022/05/27 14:36:13;;;;;;;;;;;;;;;38.42;12.41;101645.78;4429342;32;20012;-70
2022/05/27 14:38:40;;;;;;;;;;;;;;;37.77;13.01;101644.84;4426679;32;19962;-71
2022/05/27 14:41:09;;;;;;;;;;;;;;;37.80;13.11;101644.38;4425372;32;19991;-70
2022/05/27 14:48:55;;;;;;;;;;;;;;;39.25;12.40;101645.00;3952348;32;15724438;-70
2022/05/27 14:57:14;;;;;;;;;;;;;;;38.82;12.93;101651.91;3943556;32;15726082;-70
2022/05/27 14:59:44;;;;;;;;;;;;;;;38.82;12.93;101651.91;4419158;32;20128;-70
2022/05/27 15:02:19;;;;;;;;;;;;;;;39.98;12.19;101668.16;4419638;32;20433;-70
2022/05/27 15:04:53;;;;;;;;;;;;;;;41.50;10.95;101655.41;4420408;32;20311;-70
2022/05/27 15:07:20;;;;;;;;;;;;;;;39.47;12.07;101660.63;4416511;32;19997;-70
2022/05/27 15:09:57;;;;;;;;;;;;;;;36.81;13.92;101663.03;4422555;32;19996;-70
2022/05/27 15:12:26;;;;;;;;;;;;;;;35.76;14.72;101653.66;4419825;32;20012;-70
2022/05/27 15:14:52;;;;;;;;;;;;;;;35.29;15.31;101659.53;4422205;32;19953;-70
2022/05/27 15:17:33;;;;;;;;;;;;;;;33.19;17.14;101653.50;4421132;32;20123;-70
2022/05/27 15:20:07;;;;;;;;;;;;;;;32.80;17.70;101648.00;4421623;32;20057;-70
2022/05/27 15:22:42;;;;;;;;;;;;;;;32.95;17.60;101651.84;4419414;32;20355;-70
2022/05/27 15:25:11;;;;;;;;;;;;;;;33.43;16.91;101644.28;4421517;32;20027;-69
2022/05/27 15:33:26;;;;;;;;;;;;;;;31.83;18.44;101645.78;4419000;32;19957;-69
2022/05/27 15:35:55;;;;;;;;;;;;;;;35.73;15.36;101657.00;4420388;32;19974;-70
2022/05/27 15:38:23;;;;;;;;;;;;;;;36.80;14.49;101661.47;4419447;32;19969;-70
2022/05/27 15:40:49;;;;;;;;;;;;;;;37.02;14.50;101648.72;4417736;32;20045;-70
2022/05/27 15:43:16;;;;;;;;;;;;;;;35.74;15.36;101652.72;4421013;32;20222;-70
2022/05/27 15:45:43;;;;;;;;;;;;;;;35.37;15.87;101641.97;4419957;32;19986;-70
2022/05/27 15:48:10;;;;;;;;;;;;;;;32.79;18.01;101653.03;4419792;32;19957;-70
2022/05/27 15:50:35;;;;;;;;;;;;;;;32.85;18.19;101664.56;4420534;32;19950;-70
2022/05/27 15:53:02;;;;;;;;;;;;;;;33.00;18.12;101664.69;4421883;32;20032;-70
2022/05/27 15:55:28;;;;;;;;;;;;;;;35.02;16.24;101667.25;4421173;32;20000;-69
2022/05/27 15:57:53;;;;;;;;;;;;;;;37.68;14.24;101661.03;4422035;32;20333;-70
2022/05/27 16:00:19;;;;;;;;;;;;;;;37.10;14.30;101659.00;4420543;32;20330;-69
2022/05/27 16:02:45;;;;;;;;;;;;;;;36.56;14.69;101668.16;4419598;32;20005;-70
2022/05/27 16:05:11;;;;;;;;;;;;;;;35.02;15.89;101652.59;4420853;32;20112;-70
2022/05/27 16:07:37;;;;;;;;;;;;;;;33.84;16.82;101653.53;4413439;32;19957;-69